• Join FlightAware (Why Join?)
  • Login
  • US Flag 
10:29AM EDT


 

Airport Tracker/Info


-or-


 

Live Flight TrackerFlight Track Log ✈ UAL994 ✈ 12-May-2013 ✈ KDEN - KEWR

Flight Track Log - Related Links

Times and Time Zones

All times are in EDT time to prevent confusion due to time zone crossing. See the UAL994 flight status page for this flight to view local times or setup timezone preferences in your user account.

Time Position Orientation Groundspeed Altitude Reporting Facility
EDT Latitude Longitude Course Direction KTS MPH feet Rate Location/Type
02:01PM 39.8833 -104.6000 72° East 196 226 6,600  Level Denver TRACON
02:02PM 39.8833 -104.5167 90° East 251 289 8,500 1,920 Climbing Denver TRACON
02:03PM 39.8833 -104.4000 90° East 295 339 10,700 1,680 Climbing Denver TRACON
02:04PM 39.8667 -104.0545 90° East  Level FlightAware Approximate
02:04PM 39.8772 -104.3133 95° East 344 396 11,500  Level Denver Center
02:05PM 39.8667 -103.9011 90° East  Level FlightAware Approximate
02:05PM 39.8789 -104.1728 89° East 394 453 15,200  Level Denver Center
02:06PM 39.8791 -103.7503 72° East  Level FlightAware Approximate
02:06PM 39.8806 -104.0181 89° East 398 458 18,100  Level Denver Center
02:07PM 39.8822 -103.8678 89° East 416 479 21,200 2,520 Climbing Denver Center
02:08PM 39.8850 -103.7244 89° East 416 479 23,400 2,160 Climbing Denver Center
02:09PM 39.9025 -103.5597 82° East 410 472 25,700 1,800 Climbing Denver Center
02:10PM 39.9211 -103.4019 81° East 426 490 27,200 1,440 Climbing Denver Center
02:11PM 39.9378 -103.2525 82° East 433 498 28,700 1,560 Climbing Denver Center
02:12PM 39.9578 -103.0792 81° East 434 499 30,800 1,680 Climbing Denver Center
02:13PM 39.9778 -102.8831 82° East 428 493 32,600 1,560 Climbing Denver Center
02:14PM 39.9942 -102.7411 81° East 420 483 34,100 1,320 Climbing Denver Center
02:15PM 40.0089 -102.6022 82° East 408 470 35,400 1,080 Climbing Denver Center
02:16PM 40.0269 -102.4386 82° East 408 470 36,400 660 Climbing Denver Center
02:17PM 40.0408 -102.3003 82° East 405 466 37,000 240 Climbing Denver Center
02:18PM 40.0603 -102.1150 82° East 403 464 37,000  Level Denver Center
02:19PM 40.0753 -101.9528 83° East 405 466 37,000  Level Denver Center
02:21PM 40.0897 -101.8142 82° East 404 465 37,000  Level Denver Center
02:22PM 40.1031 -101.6756 83° East 402 463 37,000  Level Denver Center
02:23PM 40.1186 -101.5158 83° East 400 460 37,000  Level Denver Center
02:24PM 40.1358 -101.3325 83° East 400 460 37,000  Level Denver Center
02:25PM 40.1464 -101.2167 83° East 402 463 37,000  Level Denver Center
02:26PM 40.1639 -101.0344 83° East 398 458 37,000  Level Denver Center
02:27PM 40.1789 -100.8750 83° East 397 457 37,000  Level Denver Center
02:28PM 40.1925 -100.7144 84° East 399 459 37,000  Level Denver Center
02:29PM 40.2067 -100.5786 82° East 397 457 37,000  Level Denver Center
02:30PM 40.2378 -100.4275 75° East 389 448 37,000  Level Denver Center
02:31PM 40.2661 -100.2986 74° East 386 444 37,000  Level Denver Center
02:32PM 40.2975 -100.1450 75° East 391 450 37,000  Level Denver Center
02:33PM 40.3236 -100.0150 75° East 389 448 37,000  Level Denver Center
02:34PM 40.3558 -99.8633 74° East 387 445 37,000  Level Denver Center
02:35PM 40.3797 -99.7439 75° East 391 450 37,000  Level Denver Center
02:36PM 40.4122 -99.5794 75° East 391 450 37,000  Level Denver Center
02:37PM 40.4397 -99.4428 75° East 390 449 37,000  Level Denver Center
02:38PM 40.4678 -99.3069 75° East 388 447 37,000  Level Denver Center
02:39PM 40.4942 -99.1697 76° East 388 447 37,000  Level Denver Center
02:40PM 40.5047 -99.1164 75° East 388 447 37,000  Level Minneapolis Center
02:41PM 40.5381 -98.9517 75° East 389 448 37,000  Level Minneapolis Center
02:42PM 40.5653 -98.8142 75° East 390 449 37,000  Level Minneapolis Center
02:43PM 40.5911 -98.6756 76° East 392 451 37,000  Level Minneapolis Center
02:44PM 40.6181 -98.5372 76° East 393 452 37,000  Level Minneapolis Center
02:45PM 40.6436 -98.3964 77° East 396 456 37,000  Level Minneapolis Center
02:46PM 40.6767 -98.2275 75° East 398 458 37,000  Level Minneapolis Center
02:47PM 40.7033 -98.0850 76° East 401 461 37,000  Level Minneapolis Center
02:48PM 40.7303 -97.9411 76° East 404 465 37,000  Level Minneapolis Center
02:49PM 40.7511 -97.8264 76° East 404 465 37,000  Level Minneapolis Center
02:50PM 40.7825 -97.6517 77° East 407 468 37,000  Level Minneapolis Center
02:51PM 40.8089 -97.5056 77° East 410 472 37,000  Level Minneapolis Center
02:52PM 40.8400 -97.3358 76° East 412 474 37,000  Level Minneapolis Center
02:53PM 40.8669 -97.1875 76° East 414 476 37,000  Level Minneapolis Center
02:54PM 40.8928 -97.0389 77° East 416 479 37,000  Level Minneapolis Center
02:55PM 40.9186 -96.8897 77° East 417 480 37,000  Level Minneapolis Center
02:56PM 40.9456 -96.7414 76° East 417 480 37,000  Level Minneapolis Center
02:57PM 40.9717 -96.5917 77° East 418 481 37,000  Level Minneapolis Center
02:59PM 41.0019 -96.4125 77° East 417 480 37,000  Level Minneapolis Center
03:00PM 41.0275 -96.2633 77° East 419 482 37,000  Level Minneapolis Center
03:01PM 41.0489 -96.1103 79° East 424 488 37,000  Level Minneapolis Center
03:02PM 41.0664 -95.9556 81° East 429 494 37,000  Level Minneapolis Center
03:03PM 41.0869 -95.8006 80° East 431 496 37,000  Level Minneapolis Center
03:04PM 41.1075 -95.6433 80° East 435 501 37,000  Level Minneapolis Center
03:05PM 41.1328 -95.4525 80° East 440 506 37,000  Level Minneapolis Center
03:06PM 41.1522 -95.2919 81° East 443 510 37,000  Level Minneapolis Center
03:07PM 41.1722 -95.1294 81° East 447 514 37,000  Level Minneapolis Center
03:08PM 41.1917 -94.9664 81° East 447 514 37,000  Level Minneapolis Center
03:09PM 41.2106 -94.8033 81° East 448 516 37,000  Level Minneapolis Center
03:10PM 41.2300 -94.6386 81° East 451 519 37,000  Level Minneapolis Center
03:11PM 41.2528 -94.4386 81° East 455 524 37,000  Level Minneapolis Center
03:12PM 41.2739 -94.2719 80° East 458 527 37,000  Level Minneapolis Center
03:13PM 41.2897 -94.1281 82° East 460 529 37,000  Level Minneapolis Center
03:14PM 41.3128 -93.9250 81° East 465 535 37,000  Level Minneapolis Center
03:15PM 41.3319 -93.7564 81° East 464 534 37,000  Level Minneapolis Center
03:16PM 41.3467 -93.6208 82° East 465 535 37,000  Level Minneapolis Center
03:17PM 41.3706 -93.4133 81° East 472 543 37,000  Level Minneapolis Center
03:18PM 41.3883 -93.2436 82° East 470 541 37,000  Level Minneapolis Center
03:19PM 41.4064 -93.0717 82° East 469 540 37,000  Level Minneapolis Center
03:20PM 41.4283 -92.8647 82° East 471 542 37,000  Level Minneapolis Center
03:21PM 41.4467 -92.6883 82° East 477 549 37,000  Level Minneapolis Center
03:22PM 41.4561 -92.5792 83° East 483 556 37,000  Level Chicago Center
03:23PM 41.4733 -92.4019 83° East 485 558 37,000  Level Chicago Center
03:24PM 41.4919 -92.2242 82° East 485 558 37,000  Level Chicago Center
03:25PM 41.5092 -92.0503 82° East 483 556 37,000  Level Chicago Center
03:26PM 41.5253 -91.8753 83° East 482 555 37,000  Level Chicago Center
03:27PM 41.5456 -91.6614 83° East 487 560 37,000  Level Chicago Center
03:28PM 41.5611 -91.4833 83° East 490 564 37,000  Level Chicago Center
03:29PM 41.5758 -91.3075 84° East 485 558 37,000  Level Chicago Center
03:30PM 41.5917 -91.1281 83° East 490 564 37,000  Level Chicago Center
03:31PM 41.6072 -90.9497 83° East 489 563 37,000  Level Chicago Center
03:32PM 41.6256 -90.7358 83° East 489 563 37,000  Level Chicago Center
03:33PM 41.6383 -90.5725 84° East 486 559 37,000  Level Chicago Center
03:34PM 41.6531 -90.3919 84° East 487 560 37,000  Level Chicago Center
03:35PM 41.6683 -90.2114 83° East 487 560 37,000  Level Chicago Center
03:36PM 41.6853 -89.9931 84° East 490 564 37,000  Level Chicago Center
03:37PM 41.6997 -89.8094 84° East 493 567 37,000  Level Chicago Center
03:38PM 41.7125 -89.6264 85° East 493 567 37,000  Level Chicago Center
03:39PM 41.7242 -89.4575 85° East 493 567 37,000  Level Chicago Center
03:40PM 41.7411 -89.2389 84° East 491 565 37,000  Level Chicago Center
03:41PM 41.7522 -89.0553 85° East 495 570 37,000  Level Chicago Center
03:42PM 41.7647 -88.8703 85° East 499 574 37,000  Level Chicago Center
03:43PM 41.7772 -88.6856 85° East 499 574 37,000  Level Chicago Center
03:44PM 41.7886 -88.4997 85° East 502 578 37,000  Level Chicago Center
03:45PM 41.8011 -88.3139 85° East 498 573 37,000  Level Chicago Center
03:46PM 41.8133 -88.1247 85° East 504 580 37,000  Level Chicago Center
03:48PM 41.8264 -87.8983 85° East 507 583 37,000  Level Chicago Center
03:49PM 41.8375 -87.7094 85° East 508 585 37,000  Level Chicago Center
03:50PM 41.8483 -87.5208 86° East 509 586 37,000  Level Chicago Center
03:51PM 41.8589 -87.3322 86° East 509 586 37,000  Level Chicago Center
03:52PM 41.8686 -87.1450 86° East 507 583 37,000  Level Chicago Center
03:53PM 41.8783 -86.9561 86° East 508 585 37,000  Level Chicago Center
03:54PM 41.8892 -86.7303 86° East 509 586 37,000  Level Chicago Center
03:55PM 41.8972 -86.5372 87° East 516 594 37,000  Level Chicago Center
03:56PM 41.9058 -86.3486 86° East 511 588 37,000  Level Chicago Center
03:57PM 41.9144 -86.1603 86° East 506 582 37,000  Level Chicago Center
03:58PM 41.9217 -85.9728 87° East 503 579 37,000  Level Chicago Center
03:59PM 41.9292 -85.7844 87° East 503 579 37,000  Level Chicago Center
04:00PM 41.9367 -85.5939 87° East 507 583 37,000  Level Chicago Center
04:01PM 41.9447 -85.4047 87° East 502 578 37,000  Level Chicago Center
04:02PM 41.9539 -85.1628 87° East 497 572 37,000  Level Cleveland Center
04:03PM 41.9511 -84.9728 91° East 497 572 37,000  Level Cleveland Center
04:04PM 41.9517 -84.7856 90° East 497 572 37,000  Level Cleveland Center
04:05PM 41.9503 -84.5928 90° East 497 572 37,000  Level Cleveland Center
04:06PM 41.9464 -84.4025 92° East 502 578 37,000  Level Cleveland Center
04:07PM 41.9436 -84.2322 91° East 502 578 37,000  Level Cleveland Center
04:08PM 41.9392 -84.0392 92° East 502 578 37,000  Level Cleveland Center
04:09PM 41.9386 -83.8467 90° East 507 583 37,000  Level Cleveland Center
04:10PM 41.9339 -83.6369 92° East 507 583 37,000  Level Cleveland Center
04:11PM 41.9325 -83.4442 90° East 521 600 37,000  Level Cleveland Center
04:12PM 41.9331 -83.2517 90° East 516 594 37,000  Level Cleveland Center
04:13PM 41.9292 -83.0561 91° East 521 600 37,000  Level Cleveland Center
04:14PM 41.9289 -82.8661 90° East 515 593 37,000  Level Cleveland Center
04:15PM 41.9264 -82.6681 91° East 515 593 37,000  Level Cleveland Center
04:16PM 41.9256 -82.4753 90° East 515 593 37,000  Level Cleveland Center
04:17PM 41.9225 -82.2800 91° East 520 598 37,000  Level Cleveland Center
04:18PM 41.9228 -82.1097 90° East 511 588 37,000  Level Cleveland Center
04:19PM 41.9189 -81.9031 91° East 506 582 37,000  Level Cleveland Center
04:20PM 41.9064 -81.7186 95° East 506 582 37,000  Level Cleveland Center
04:21PM 41.8894 -81.5342 97° East 498 573 37,000  Level Cleveland Center
04:22PM 41.8739 -81.3500 96° East 504 580 37,000  Level Cleveland Center
04:23PM 41.8542 -81.1603 98° East 504 580 37,000  Level Cleveland Center
04:24PM 41.8383 -80.9761 97° East 498 573 37,000  Level Cleveland Center
04:25PM 41.8222 -80.8089 97° East 498 573 37,000  Level Cleveland Center
04:26PM 41.8036 -80.6222 98° East 503 579 37,000  Level Cleveland Center
04:27PM 41.7869 -80.4411 97° East 498 573 37,000  Level Cleveland Center
04:28PM 41.7678 -80.2603 98° East 498 573 37,000  Level Cleveland Center
04:29PM 41.7483 -80.0767 98° East 498 573 37,000  Level Cleveland Center
04:30PM 41.7308 -79.8931 97° East 498 573 37,000  Level Cleveland Center
04:31PM 41.7106 -79.6986 98° East 493 567 37,000  Level Cleveland Center
04:32PM 41.6925 -79.5347 98° East 493 567 37,000  Level Cleveland Center
04:33PM 41.6742 -79.3544 98° East 493 567 37,000  Level Cleveland Center
04:34PM 41.6531 -79.1547 98° East 493 567 37,000  Level Cleveland Center
04:35PM 41.6322 -78.9914 100° East 493 567 37,000  Level Cleveland Center
04:36PM 41.6106 -78.8086 99° East 493 567 37,000 -60 Level Cleveland Center
04:37PM 41.5931 -78.6286 97° East 493 567 36,900 -540 Descending Cleveland Center
04:38PM 41.5711 -78.4461 99° East 493 567 36,000 -1,140 Descending Cleveland Center
04:40PM 41.5267 -78.0950 99° East 498 573 33,700 -1,260 Descending New York Center
04:41PM 41.5067 -77.9100 98° East 503 579 32,400 -1,440 Descending New York Center
04:42PM 41.4783 -77.7242 101° East 509 586 30,900 -1,560 Descending New York Center
04:43PM 41.4497 -77.5331 101° East 515 593 29,300 -1,440 Descending New York Center
04:44PM 41.4178 -77.3194 101° East 522 601 28,000 -660 Descending New York Center
04:45PM 41.3903 -77.1369 101° East 515 593 28,000  Level New York Center
04:46PM 41.3647 -76.9492 100° East 515 593 28,000 -540 Level New York Center
04:47PM 41.3325 -76.7667 103° East 515 593 27,000 -1,440 Descending New York Center
04:48PM 41.2908 -76.5972 108° East 505 581 25,200 -2,040 Descending New York Center
04:49PM 41.2519 -76.4558 110° East 470 541 23,000 -2,280 Descending New York Center
04:50PM 41.2111 -76.3064 110° East 453 521 20,700 -2,340 Descending New York Center
04:51PM 41.1703 -76.1514 109° East 433 498 18,300 -2,520 Descending New York Center
04:52PM 41.1272 -75.9964 110° East 416 479 15,700 -2,220 Descending New York Center
04:53PM 41.0897 -75.8558 109° East 407 468 13,900 -1,260 Descending New York Center
04:54PM 41.0517 -75.7208 110° East 395 455 13,300 -480 Descending New York Center
04:55PM 41.0194 -75.5947 109° East 395 455 13,000 -240 Descending New York Center
04:56PM 40.9792 -75.4572 111° Southeast 395 455 12,900 -1,020 Descending New York Center
04:57PM 40.9406 -75.3256 111° Southeast 395 455 11,000 -1,560 Descending New York Center
04:58PM 40.9039 -75.1886 109° East 370 426 9,900 -1,200 Descending New York Center
04:59PM 40.8725 -75.0794 111° Southeast 330 380 8,600 -1,320 Descending New York Center
05:00PM 40.8428 -74.9789 111° Southeast 304 350 7,300 -1,320 Descending New York Center
05:01PM 40.8153 -74.8731 109° East 296 341 6,000 -660 Descending New York Center
05:02PM 40.8331 -74.7833 75° East 276 318 6,000  Level New York Center
05:03PM 40.8597 -74.6725 72° East 283 326 6,000 -180 Level New York Center
05:04PM 40.8794 -74.5803 74° East 283 326 5,700 -540 Descending New York Center
05:05PM 40.8914 -74.4658 82° East 283 326 5,000 -360 Descending New York Center
05:06PM 40.9000 -74.3667 83° East 290 334 5,000 -360 Level New York TRACON
05:07PM 40.9167 -74.2500 79° East 291 335 4,400 -540 Descending New York TRACON
05:08PM 40.8833 -74.1500 114° Southeast 278 320 4,000 -300 Descending New York TRACON
05:09PM 40.8500 -74.0833 123° Southeast 234 269 3,900 -600 Descending New York TRACON
05:10PM 40.8000 -74.0833 180° South 192 221 2,800 -1,140 Descending New York TRACON